sensor_id;sensor_type;location;lat;lon;timestamp;P1;durP1;ratioP1;P2;durP2;ratioP2
26486;SDS011;14425;56.136;40.360;2023-02-01T00:01:50;29.98;;;13.93;;
26486;SDS011;14425;56.136;40.360;2023-02-01T00:04:16;23.60;;;11.57;;
26486;SDS011;14425;56.136;40.360;2023-02-01T00:06:41;29.92;;;13.77;;
26486;SDS011;14425;56.136;40.360;2023-02-01T00:09:07;27.05;;;13.32;;
26486;SDS011;14425;56.136;40.360;2023-02-01T00:11:33;27.83;;;12.50;;
26486;SDS011;14425;56.136;40.360;2023-02-01T00:13:58;31.50;;;13.68;;
26486;SDS011;14425;56.136;40.360;2023-02-01T00:16:27;31.52;;;14.95;;
26486;SDS011;14425;56.136;40.360;2023-02-01T00:18:59;27.97;;;12.73;;
26486;SDS011;14425;56.136;40.360;2023-02-01T00:21:26;32.90;;;13.45;;
26486;SDS011;14425;56.136;40.360;2023-02-01T00:23:52;34.15;;;16.77;;
26486;SDS011;14425;56.136;40.360;2023-02-01T00:26:19;31.85;;;13.73;;
26486;SDS011;14425;56.136;40.360;2023-02-01T00:28:47;31.52;;;13.32;;
26486;SDS011;14425;56.136;40.360;2023-02-01T00:31:13;31.52;;;13.43;;
26486;SDS011;14425;56.136;40.360;2023-02-01T00:33:40;28.38;;;12.85;;
26486;SDS011;14425;56.136;40.360;2023-02-01T00:36:06;30.63;;;15.57;;
26486;SDS011;14425;56.136;40.360;2023-02-01T00:38:34;31.13;;;13.68;;
26486;SDS011;14425;56.136;40.360;2023-02-01T00:41:02;33.60;;;13.90;;
26486;SDS011;14425;56.136;40.360;2023-02-01T00:43:29;24.15;;;10.95;;
26486;SDS011;14425;56.136;40.360;2023-02-01T00:45:56;30.75;;;12.85;;
26486;SDS011;14425;56.136;40.360;2023-02-01T00:48:21;31.73;;;13.88;;
26486;SDS011;14425;56.136;40.360;2023-02-01T00:50:46;26.55;;;13.70;;
26486;SDS011;14425;56.136;40.360;2023-02-01T00:53:12;32.92;;;14.13;;
26486;SDS011;14425;56.136;40.360;2023-02-01T00:55:37;32.30;;;14.48;;
26486;SDS011;14425;56.136;40.360;2023-02-01T00:58:03;31.13;;;13.95;;
26486;SDS011;14425;56.136;40.360;2023-02-01T01:00:31;25.10;;;12.75;;
26486;SDS011;14425;56.136;40.360;2023-02-01T01:02:59;25.90;;;13.50;;
26486;SDS011;14425;56.136;40.360;2023-02-01T01:05:24;28.02;;;13.40;;
26486;SDS011;14425;56.136;40.360;2023-02-01T01:07:52;30.05;;;16.27;;
26486;SDS011;14425;56.136;40.360;2023-02-01T01:10:18;31.23;;;14.00;;
26486;SDS011;14425;56.136;40.360;2023-02-01T01:12:44;29.85;;;14.00;;
26486;SDS011;14425;56.136;40.360;2023-02-01T01:15:09;29.00;;;12.88;;
26486;SDS011;14425;56.136;40.360;2023-02-01T01:17:35;29.75;;;13.10;;
26486;SDS011;14425;56.136;40.360;2023-02-01T01:20:01;30.92;;;13.57;;
26486;SDS011;14425;56.136;40.360;2023-02-01T01:22:27;27.33;;;13.68;;
26486;SDS011;14425;56.136;40.360;2023-02-01T01:24:53;34.53;;;15.13;;
26486;SDS011;14425;56.136;40.360;2023-02-01T01:27:18;36.30;;;16.15;;
26486;SDS011;14425;56.136;40.360;2023-02-01T01:29:48;31.15;;;14.82;;
26486;SDS011;14425;56.136;40.360;2023-02-01T01:32:14;32.90;;;14.95;;
26486;SDS011;14425;56.136;40.360;2023-02-01T01:34:39;28.20;;;13.20;;
26486;SDS011;14425;56.136;40.360;2023-02-01T01:37:05;35.53;;;14.40;;
26486;SDS011;14425;56.136;40.360;2023-02-01T01:39:30;29.67;;;13.30;;
26486;SDS011;14425;56.136;40.360;2023-02-01T01:41:56;31.70;;;14.20;;
26486;SDS011;14425;56.136;40.360;2023-02-01T01:47:23;24.77;;;11.43;;
26486;SDS011;14425;56.136;40.360;2023-02-01T01:49:50;32.75;;;16.60;;
26486;SDS011;14425;56.136;40.360;2023-02-01T01:52:16;31.13;;;15.88;;
26486;SDS011;14425;56.136;40.360;2023-02-01T01:54:44;29.42;;;13.75;;
26486;SDS011;14425;56.136;40.360;2023-02-01T01:57:14;32.03;;;13.40;;
26486;SDS011;14425;56.136;40.360;2023-02-01T01:59:54;30.90;;;14.55;;
26486;SDS011;14425;56.136;40.360;2023-02-01T02:02:26;33.97;;;14.13;;
26486;SDS011;14425;56.136;40.360;2023-02-01T02:04:51;30.48;;;14.63;;
26486;SDS011;14425;56.136;40.360;2023-02-01T02:07:17;27.70;;;13.65;;
26486;SDS011;14425;56.136;40.360;2023-02-01T02:09:53;32.45;;;15.15;;
26486;SDS011;14425;56.136;40.360;2023-02-01T02:12:19;29.25;;;13.25;;
26486;SDS011;14425;56.136;40.360;2023-02-01T02:14:45;28.50;;;13.15;;
26486;SDS011;14425;56.136;40.360;2023-02-01T02:28:19;26.75;;;12.10;;
26486;SDS011;14425;56.136;40.360;2023-02-01T02:34:01;30.10;;;12.63;;
26486;SDS011;14425;56.136;40.360;2023-02-01T02:41:31;28.35;;;12.88;;
26486;SDS011;14425;56.136;40.360;2023-02-01T02:44:23;32.85;;;15.25;;
26486;SDS011;14425;56.136;40.360;2023-02-01T02:47:23;31.95;;;13.77;;
26486;SDS011;14425;56.136;40.360;2023-02-01T02:50:11;34.03;;;14.20;;
26486;SDS011;14425;56.136;40.360;2023-02-01T02:56:01;33.72;;;14.43;;
26486;SDS011;14425;56.136;40.360;2023-02-01T02:58:49;33.90;;;15.93;;
26486;SDS011;14425;56.136;40.360;2023-02-01T03:01:35;29.95;;;13.63;;
26486;SDS011;14425;56.136;40.360;2023-02-01T03:04:21;27.00;;;13.05;;
26486;SDS011;14425;56.136;40.360;2023-02-01T03:06:48;29.58;;;14.30;;
26486;SDS011;14425;56.136;40.360;2023-02-01T03:09:22;33.17;;;14.80;;
26486;SDS011;14425;56.136;40.360;2023-02-01T03:11:48;33.03;;;14.52;;
26486;SDS011;14425;56.136;40.360;2023-02-01T03:14:36;28.20;;;13.25;;
26486;SDS011;14425;56.136;40.360;2023-02-01T03:17:08;34.67;;;16.13;;
26486;SDS011;14425;56.136;40.360;2023-02-01T03:19:39;31.90;;;15.85;;
26486;SDS011;14425;56.136;40.360;2023-02-01T03:22:14;36.80;;;14.45;;
26486;SDS011;14425;56.136;40.360;2023-02-01T03:27:30;31.55;;;15.88;;
26486;SDS011;14425;56.136;40.360;2023-02-01T03:30:08;35.05;;;15.70;;
26486;SDS011;14425;56.136;40.360;2023-02-01T03:32:43;34.60;;;14.02;;
26486;SDS011;14425;56.136;40.360;2023-02-01T03:37:52;30.17;;;13.27;;
26486;SDS011;14425;56.136;40.360;2023-02-01T03:40:21;31.83;;;14.02;;
26486;SDS011;14425;56.136;40.360;2023-02-01T03:42:49;34.80;;;14.43;;
26486;SDS011;14425;56.136;40.360;2023-02-01T03:45:24;25.45;;;12.35;;
26486;SDS011;14425;56.136;40.360;2023-02-01T03:47:56;30.08;;;13.80;;
26486;SDS011;14425;56.136;40.360;2023-02-01T03:50:26;32.60;;;14.18;;
26486;SDS011;14425;56.136;40.360;2023-02-01T03:52:58;30.17;;;14.27;;
26486;SDS011;14425;56.136;40.360;2023-02-01T03:55:28;29.60;;;14.60;;
26486;SDS011;14425;56.136;40.360;2023-02-01T03:57:59;32.70;;;15.40;;
26486;SDS011;14425;56.136;40.360;2023-02-01T04:00:29;37.20;;;14.80;;
26486;SDS011;14425;56.136;40.360;2023-02-01T04:02:54;29.98;;;14.10;;
26486;SDS011;14425;56.136;40.360;2023-02-01T04:05:20;33.33;;;13.65;;
26486;SDS011;14425;56.136;40.360;2023-02-01T04:07:47;34.67;;;15.27;;
26486;SDS011;14425;56.136;40.360;2023-02-01T04:10:13;32.08;;;15.68;;
26486;SDS011;14425;56.136;40.360;2023-02-01T04:12:38;36.17;;;15.50;;
26486;SDS011;14425;56.136;40.360;2023-02-01T04:15:04;31.05;;;14.48;;
26486;SDS011;14425;56.136;40.360;2023-02-01T04:17:30;33.13;;;13.57;;
26486;SDS011;14425;56.136;40.360;2023-02-01T04:19:56;31.65;;;14.73;;
26486;SDS011;14425;56.136;40.360;2023-02-01T04:22:21;36.30;;;15.18;;
26486;SDS011;14425;56.136;40.360;2023-02-01T04:24:47;28.55;;;14.00;;
26486;SDS011;14425;56.136;40.360;2023-02-01T04:27:12;28.80;;;12.75;;
26486;SDS011;14425;56.136;40.360;2023-02-01T04:29:38;32.17;;;15.77;;
26486;SDS011;14425;56.136;40.360;2023-02-01T04:32:04;32.50;;;15.57;;
26486;SDS011;14425;56.136;40.360;2023-02-01T04:34:30;33.00;;;14.70;;
26486;SDS011;14425;56.136;40.360;2023-02-01T04:36:55;35.58;;;15.48;;
26486;SDS011;14425;56.136;40.360;2023-02-01T04:39:21;31.90;;;15.60;;
26486;SDS011;14425;56.136;40.360;2023-02-01T04:41:46;31.55;;;14.60;;
26486;SDS011;14425;56.136;40.360;2023-02-01T04:44:18;39.72;;;18.23;;
26486;SDS011;14425;56.136;40.360;2023-02-01T04:46:44;32.50;;;14.38;;
26486;SDS011;14425;56.136;40.360;2023-02-01T04:49:11;44.60;;;16.63;;
26486;SDS011;14425;56.136;40.360;2023-02-01T04:51:37;32.05;;;15.18;;
26486;SDS011;14425;56.136;40.360;2023-02-01T04:54:03;36.47;;;16.15;;
26486;SDS011;14425;56.136;40.360;2023-02-01T04:56:29;31.02;;;13.57;;
26486;SDS011;14425;56.136;40.360;2023-02-01T04:58:55;30.25;;;14.20;;
26486;SDS011;14425;56.136;40.360;2023-02-01T05:01:21;34.70;;;13.93;;
26486;SDS011;14425;56.136;40.360;2023-02-01T05:03:47;31.60;;;13.55;;
26486;SDS011;14425;56.136;40.360;2023-02-01T05:06:13;35.22;;;13.95;;
26486;SDS011;14425;56.136;40.360;2023-02-01T05:08:38;28.40;;;12.35;;
26486;SDS011;14425;56.136;40.360;2023-02-01T05:11:04;28.55;;;14.73;;
26486;SDS011;14425;56.136;40.360;2023-02-01T05:13:30;35.58;;;14.60;;
26486;SDS011;14425;56.136;40.360;2023-02-01T05:16:14;32.00;;;15.55;;
26486;SDS011;14425;56.136;40.360;2023-02-01T05:18:41;32.25;;;14.52;;
26486;SDS011;14425;56.136;40.360;2023-02-01T05:21:06;34.03;;;15.95;;
26486;SDS011;14425;56.136;40.360;2023-02-01T05:23:32;34.47;;;13.70;;
26486;SDS011;14425;56.136;40.360;2023-02-01T05:26:00;30.63;;;13.32;;
26486;SDS011;14425;56.136;40.360;2023-02-01T05:28:27;31.38;;;13.32;;
26486;SDS011;14425;56.136;40.360;2023-02-01T05:30:53;31.00;;;14.55;;
26486;SDS011;14425;56.136;40.360;2023-02-01T05:33:19;35.03;;;15.20;;
26486;SDS011;14425;56.136;40.360;2023-02-01T05:35:44;33.72;;;13.45;;
26486;SDS011;14425;56.136;40.360;2023-02-01T05:38:09;34.08;;;15.15;;
26486;SDS011;14425;56.136;40.360;2023-02-01T05:40:35;28.92;;;13.98;;
26486;SDS011;14425;56.136;40.360;2023-02-01T05:43:00;28.30;;;12.85;;
26486;SDS011;14425;56.136;40.360;2023-02-01T05:45:26;37.67;;;15.95;;
26486;SDS011;14425;56.136;40.360;2023-02-01T05:47:51;36.72;;;16.75;;
26486;SDS011;14425;56.136;40.360;2023-02-01T05:50:17;40.05;;;17.15;;
26486;SDS011;14425;56.136;40.360;2023-02-01T05:52:42;34.63;;;15.02;;
26486;SDS011;14425;56.136;40.360;2023-02-01T05:55:08;30.02;;;14.63;;
26486;SDS011;14425;56.136;40.360;2023-02-01T05:57:33;35.30;;;15.30;;
26486;SDS011;14425;56.136;40.360;2023-02-01T05:59:59;31.73;;;14.63;;
26486;SDS011;14425;56.136;40.360;2023-02-01T06:02:24;33.42;;;14.23;;
26486;SDS011;14425;56.136;40.360;2023-02-01T06:04:50;35.75;;;14.30;;
26486;SDS011;14425;56.136;40.360;2023-02-01T06:07:16;30.77;;;14.45;;
26486;SDS011;14425;56.136;40.360;2023-02-01T06:09:42;30.48;;;14.23;;
26486;SDS011;14425;56.136;40.360;2023-02-01T06:12:07;30.08;;;14.27;;
26486;SDS011;14425;56.136;40.360;2023-02-01T06:14:33;34.55;;;15.10;;
26486;SDS011;14425;56.136;40.360;2023-02-01T06:17:16;31.98;;;14.35;;
26486;SDS011;14425;56.136;40.360;2023-02-01T06:19:42;36.05;;;14.38;;
26486;SDS011;14425;56.136;40.360;2023-02-01T06:22:09;33.40;;;14.75;;
26486;SDS011;14425;56.136;40.360;2023-02-01T06:24:34;32.08;;;13.30;;
26486;SDS011;14425;56.136;40.360;2023-02-01T06:27:00;31.08;;;14.13;;
26486;SDS011;14425;56.136;40.360;2023-02-01T06:29:25;34.08;;;13.60;;
26486;SDS011;14425;56.136;40.360;2023-02-01T06:31:51;35.42;;;15.40;;
26486;SDS011;14425;56.136;40.360;2023-02-01T06:34:17;29.42;;;12.98;;
26486;SDS011;14425;56.136;40.360;2023-02-01T06:36:43;28.85;;;14.57;;
26486;SDS011;14425;56.136;40.360;2023-02-01T06:39:08;33.17;;;13.57;;
26486;SDS011;14425;56.136;40.360;2023-02-01T06:41:34;34.25;;;14.70;;
26486;SDS011;14425;56.136;40.360;2023-02-01T06:43:59;30.08;;;13.07;;
26486;SDS011;14425;56.136;40.360;2023-02-01T06:46:25;31.42;;;13.95;;
26486;SDS011;14425;56.136;40.360;2023-02-01T06:48:50;28.92;;;13.57;;
26486;SDS011;14425;56.136;40.360;2023-02-01T06:51:20;28.45;;;13.18;;
26486;SDS011;14425;56.136;40.360;2023-02-01T06:54:12;29.15;;;12.88;;
26486;SDS011;14425;56.136;40.360;2023-02-01T06:56:38;33.17;;;12.80;;
26486;SDS011;14425;56.136;40.360;2023-02-01T06:59:04;36.28;;;15.30;;
26486;SDS011;14425;56.136;40.360;2023-02-01T07:01:30;32.22;;;13.45;;
26486;SDS011;14425;56.136;40.360;2023-02-01T07:03:56;28.85;;;14.50;;
26486;SDS011;14425;56.136;40.360;2023-02-01T07:06:21;33.22;;;15.23;;
26486;SDS011;14425;56.136;40.360;2023-02-01T07:08:47;28.20;;;14.02;;
26486;SDS011;14425;56.136;40.360;2023-02-01T07:11:18;33.65;;;13.77;;
26486;SDS011;14425;56.136;40.360;2023-02-01T07:13:44;33.42;;;14.68;;
26486;SDS011;14425;56.136;40.360;2023-02-01T07:16:16;30.05;;;15.13;;
26486;SDS011;14425;56.136;40.360;2023-02-01T07:18:43;32.83;;;14.15;;
26486;SDS011;14425;56.136;40.360;2023-02-01T07:21:09;28.25;;;15.38;;
26486;SDS011;14425;56.136;40.360;2023-02-01T07:23:35;31.73;;;13.52;;
26486;SDS011;14425;56.136;40.360;2023-02-01T07:26:01;33.20;;;13.82;;
26486;SDS011;14425;56.136;40.360;2023-02-01T07:28:29;25.58;;;11.23;;
26486;SDS011;14425;56.136;40.360;2023-02-01T07:31:06;26.02;;;11.10;;
26486;SDS011;14425;56.136;40.360;2023-02-01T07:33:33;29.13;;;12.48;;
26486;SDS011;14425;56.136;40.360;2023-02-01T07:36:00;34.08;;;14.98;;
26486;SDS011;14425;56.136;40.360;2023-02-01T07:38:27;30.05;;;13.85;;
26486;SDS011;14425;56.136;40.360;2023-02-01T07:40:56;33.00;;;13.23;;
26486;SDS011;14425;56.136;40.360;2023-02-01T07:43:23;35.13;;;13.68;;
26486;SDS011;14425;56.136;40.360;2023-02-01T07:45:52;28.15;;;10.30;;
26486;SDS011;14425;56.136;40.360;2023-02-01T07:48:19;33.22;;;14.55;;
26486;SDS011;14425;56.136;40.360;2023-02-01T07:50:46;31.50;;;13.95;;
26486;SDS011;14425;56.136;40.360;2023-02-01T07:53:11;33.55;;;13.95;;
26486;SDS011;14425;56.136;40.360;2023-02-01T07:55:37;34.08;;;14.50;;
26486;SDS011;14425;56.136;40.360;2023-02-01T07:58:06;31.77;;;14.35;;
26486;SDS011;14425;56.136;40.360;2023-02-01T08:00:31;31.25;;;12.27;;
26486;SDS011;14425;56.136;40.360;2023-02-01T08:03:15;27.98;;;11.00;;
26486;SDS011;14425;56.136;40.360;2023-02-01T08:05:41;32.95;;;13.23;;
26486;SDS011;14425;56.136;40.360;2023-02-01T08:08:07;33.47;;;14.20;;
26486;SDS011;14425;56.136;40.360;2023-02-01T08:10:32;30.35;;;13.63;;
26486;SDS011;14425;56.136;40.360;2023-02-01T08:13:00;28.77;;;12.93;;
26486;SDS011;14425;56.136;40.360;2023-02-01T08:15:27;34.92;;;15.70;;
26486;SDS011;14425;56.136;40.360;2023-02-01T08:17:53;33.40;;;13.75;;
26486;SDS011;14425;56.136;40.360;2023-02-01T08:20:23;31.35;;;12.07;;
26486;SDS011;14425;56.136;40.360;2023-02-01T08:22:50;33.78;;;14.27;;
26486;SDS011;14425;56.136;40.360;2023-02-01T08:25:16;31.80;;;14.73;;
26486;SDS011;14425;56.136;40.360;2023-02-01T08:27:41;31.50;;;12.43;;
26486;SDS011;14425;56.136;40.360;2023-02-01T08:30:07;35.80;;;15.50;;
26486;SDS011;14425;56.136;40.360;2023-02-01T08:32:34;30.48;;;14.38;;
26486;SDS011;14425;56.136;40.360;2023-02-01T08:35:00;32.40;;;13.60;;
26486;SDS011;14425;56.136;40.360;2023-02-01T08:37:26;29.80;;;13.98;;
26486;SDS011;14425;56.136;40.360;2023-02-01T08:39:51;32.80;;;13.23;;
26486;SDS011;14425;56.136;40.360;2023-02-01T08:42:17;34.70;;;15.07;;
26486;SDS011;14425;56.136;40.360;2023-02-01T08:45:02;29.60;;;12.55;;
26486;SDS011;14425;56.136;40.360;2023-02-01T08:47:29;35.47;;;14.63;;
26486;SDS011;14425;56.136;40.360;2023-02-01T08:49:55;30.13;;;13.05;;
26486;SDS011;14425;56.136;40.360;2023-02-01T08:52:21;29.80;;;12.77;;
26486;SDS011;14425;56.136;40.360;2023-02-01T08:54:46;32.70;;;13.43;;
26486;SDS011;14425;56.136;40.360;2023-02-01T08:57:12;31.27;;;13.55;;
26486;SDS011;14425;56.136;40.360;2023-02-01T08:59:38;33.45;;;13.68;;
26486;SDS011;14425;56.136;40.360;2023-02-01T09:02:03;25.90;;;11.98;;
26486;SDS011;14425;56.136;40.360;2023-02-01T09:04:29;31.33;;;14.18;;
26486;SDS011;14425;56.136;40.360;2023-02-01T09:06:54;33.38;;;13.55;;
26486;SDS011;14425;56.136;40.360;2023-02-01T09:09:23;33.50;;;14.43;;
26486;SDS011;14425;56.136;40.360;2023-02-01T09:11:49;33.35;;;12.23;;
26486;SDS011;14425;56.136;40.360;2023-02-01T09:14:15;30.92;;;12.85;;
26486;SDS011;14425;56.136;40.360;2023-02-01T09:16:41;32.92;;;14.32;;
26486;SDS011;14425;56.136;40.360;2023-02-01T09:19:07;31.70;;;13.75;;
26486;SDS011;14425;56.136;40.360;2023-02-01T09:21:32;31.33;;;13.93;;
26486;SDS011;14425;56.136;40.360;2023-02-01T09:23:58;30.20;;;13.38;;
26486;SDS011;14425;56.136;40.360;2023-02-01T09:26:23;30.83;;;13.82;;
26486;SDS011;14425;56.136;40.360;2023-02-01T09:28:50;28.10;;;13.50;;
26486;SDS011;14425;56.136;40.360;2023-02-01T09:31:15;34.33;;;13.38;;
26486;SDS011;14425;56.136;40.360;2023-02-01T09:33:41;31.20;;;14.38;;
26486;SDS011;14425;56.136;40.360;2023-02-01T09:36:06;28.45;;;12.73;;
26486;SDS011;14425;56.136;40.360;2023-02-01T09:38:32;29.33;;;12.90;;
26486;SDS011;14425;56.136;40.360;2023-02-01T09:40:57;31.42;;;13.55;;
26486;SDS011;14425;56.136;40.360;2023-02-01T09:48:53;34.22;;;12.40;;
26486;SDS011;14425;56.136;40.360;2023-02-01T09:51:25;26.77;;;12.38;;
26486;SDS011;14425;56.136;40.360;2023-02-01T09:56:39;33.95;;;13.68;;
26486;SDS011;14425;56.136;40.360;2023-02-01T09:59:23;29.85;;;11.50;;
26486;SDS011;14425;56.136;40.360;2023-02-01T10:01:56;31.95;;;12.77;;
26486;SDS011;14425;56.136;40.360;2023-02-01T10:04:22;29.70;;;13.02;;
26486;SDS011;14425;56.136;40.360;2023-02-01T10:15:05;30.17;;;13.18;;
26486;SDS011;14425;56.136;40.360;2023-02-01T10:23:25;27.58;;;12.52;;
26486;SDS011;14425;56.136;40.360;2023-02-01T10:25:59;33.05;;;13.18;;
26486;SDS011;14425;56.136;40.360;2023-02-01T10:28:30;27.13;;;11.95;;
26486;SDS011;14425;56.136;40.360;2023-02-01T10:31:00;27.45;;;13.68;;
26486;SDS011;14425;56.136;40.360;2023-02-01T10:33:31;31.00;;;13.00;;
26486;SDS011;14425;56.136;40.360;2023-02-01T10:36:01;25.27;;;11.48;;
26486;SDS011;14425;56.136;40.360;2023-02-01T10:38:48;27.45;;;12.50;;
26486;SDS011;14425;56.136;40.360;2023-02-01T10:41:15;26.23;;;12.10;;
26486;SDS011;14425;56.136;40.360;2023-02-01T10:43:45;29.10;;;13.13;;
26486;SDS011;14425;56.136;40.360;2023-02-01T10:46:13;29.30;;;12.43;;
26486;SDS011;14425;56.136;40.360;2023-02-01T10:48:38;27.80;;;11.85;;
26486;SDS011;14425;56.136;40.360;2023-02-01T10:51:07;32.00;;;13.82;;
26486;SDS011;14425;56.136;40.360;2023-02-01T10:53:48;23.75;;;11.65;;
26486;SDS011;14425;56.136;40.360;2023-02-01T10:56:21;21.10;;;10.45;;
26486;SDS011;14425;56.136;40.360;2023-02-01T10:58:52;24.63;;;10.75;;
26486;SDS011;14425;56.136;40.360;2023-02-01T11:04:05;23.45;;;9.80;;
26486;SDS011;14425;56.136;40.360;2023-02-01T11:06:36;21.27;;;11.05;;
26486;SDS011;14425;56.136;40.360;2023-02-01T11:11:31;20.88;;;9.80;;
26486;SDS011;14425;56.136;40.360;2023-02-01T11:13:58;24.98;;;10.60;;
26486;SDS011;14425;56.136;40.360;2023-02-01T11:16:32;24.23;;;10.35;;
26486;SDS011;14425;56.136;40.360;2023-02-01T11:19:03;23.70;;;11.02;;
26486;SDS011;14425;56.136;40.360;2023-02-01T11:21:30;23.55;;;10.18;;
26486;SDS011;14425;56.136;40.360;2023-02-01T11:23:59;20.13;;;9.07;;
26486;SDS011;14425;56.136;40.360;2023-02-01T11:26:26;20.77;;;9.43;;
26486;SDS011;14425;56.136;40.360;2023-02-01T11:29:14;23.02;;;9.85;;
26486;SDS011;14425;56.136;40.360;2023-02-01T11:31:42;19.05;;;9.48;;
26486;SDS011;14425;56.136;40.360;2023-02-01T11:34:16;20.85;;;9.82;;
26486;SDS011;14425;56.136;40.360;2023-02-01T11:36:46;19.05;;;9.38;;
26486;SDS011;14425;56.136;40.360;2023-02-01T11:49:53;23.45;;;12.25;;
26486;SDS011;14425;56.136;40.360;2023-02-01T12:11:22;21.27;;;8.35;;
26486;SDS011;14425;56.136;40.360;2023-02-01T12:14:24;20.10;;;8.55;;
26486;SDS011;14425;56.136;40.360;2023-02-01T12:17:06;14.65;;;7.50;;
26486;SDS011;14425;56.136;40.360;2023-02-01T12:25:53;14.50;;;8.13;;
26486;SDS011;14425;56.136;40.360;2023-02-01T12:28:15;17.02;;;7.10;;
26486;SDS011;14425;56.136;40.360;2023-02-01T12:44:03;11.70;;;7.05;;
26486;SDS011;14425;56.136;40.360;2023-02-01T12:49:30;22.15;;;8.95;;
26486;SDS011;14425;56.136;40.360;2023-02-01T12:51:58;14.60;;;6.95;;
26486;SDS011;14425;56.136;40.360;2023-02-01T12:57:06;14.55;;;7.68;;
26486;SDS011;14425;56.136;40.360;2023-02-01T12:59:51;15.02;;;8.05;;
26486;SDS011;14425;56.136;40.360;2023-02-01T13:02:33;14.32;;;6.97;;
26486;SDS011;14425;56.136;40.360;2023-02-01T13:05:13;14.25;;;7.15;;
26486;SDS011;14425;56.136;40.360;2023-02-01T13:07:44;15.77;;;7.85;;
26486;SDS011;14425;56.136;40.360;2023-02-01T13:10:19;14.63;;;6.68;;
26486;SDS011;14425;56.136;40.360;2023-02-01T13:15:28;16.27;;;8.43;;
26486;SDS011;14425;56.136;40.360;2023-02-01T13:17:59;13.40;;;6.75;;
26486;SDS011;14425;56.136;40.360;2023-02-01T13:20:34;14.95;;;6.57;;
26486;SDS011;14425;56.136;40.360;2023-02-01T13:25:48;14.43;;;7.93;;
26486;SDS011;14425;56.136;40.360;2023-02-01T13:28:26;23.10;;;9.45;;
26486;SDS011;14425;56.136;40.360;2023-02-01T13:31:02;19.73;;;8.38;;
26486;SDS011;14425;56.136;40.360;2023-02-01T13:33:55;15.70;;;7.30;;
26486;SDS011;14425;56.136;40.360;2023-02-01T13:36:37;17.00;;;8.50;;
26486;SDS011;14425;56.136;40.360;2023-02-01T13:41:55;21.25;;;8.65;;
26486;SDS011;14425;56.136;40.360;2023-02-01T13:47:13;15.98;;;7.40;;
26486;SDS011;14425;56.136;40.360;2023-02-01T13:49:47;14.55;;;8.70;;
26486;SDS011;14425;56.136;40.360;2023-02-01T13:52:23;18.63;;;8.60;;
26486;SDS011;14425;56.136;40.360;2023-02-01T13:55:03;14.40;;;7.75;;
26486;SDS011;14425;56.136;40.360;2023-02-01T13:57:41;13.30;;;7.45;;
26486;SDS011;14425;56.136;40.360;2023-02-01T14:26:42;19.67;;;8.98;;
26486;SDS011;14425;56.136;40.360;2023-02-01T14:29:32;17.00;;;8.07;;
26486;SDS011;14425;56.136;40.360;2023-02-01T14:37:33;16.77;;;8.77;;
26486;SDS011;14425;56.136;40.360;2023-02-01T14:40:20;15.15;;;8.32;;
26486;SDS011;14425;56.136;40.360;2023-02-01T14:42:50;14.30;;;7.85;;
26486;SDS011;14425;56.136;40.360;2023-02-01T14:47:49;22.08;;;10.05;;
26486;SDS011;14425;56.136;40.360;2023-02-01T14:50:33;17.35;;;8.80;;
26486;SDS011;14425;56.136;40.360;2023-02-01T14:55:41;21.08;;;10.13;;
26486;SDS011;14425;56.136;40.360;2023-02-01T15:09:19;19.75;;;9.77;;
26486;SDS011;14425;56.136;40.360;2023-02-01T15:14:24;16.88;;;9.35;;
26486;SDS011;14425;56.136;40.360;2023-02-01T15:16:55;15.13;;;7.50;;
26486;SDS011;14425;56.136;40.360;2023-02-01T15:19:22;23.90;;;11.55;;
26486;SDS011;14425;56.136;40.360;2023-02-01T15:21:52;21.75;;;10.70;;
26486;SDS011;14425;56.136;40.360;2023-02-01T15:24:23;19.10;;;10.75;;
26486;SDS011;14425;56.136;40.360;2023-02-01T15:26:56;23.27;;;10.82;;
26486;SDS011;14425;56.136;40.360;2023-02-01T15:29:28;21.15;;;11.18;;
26486;SDS011;14425;56.136;40.360;2023-02-01T15:31:57;22.50;;;10.95;;
26486;SDS011;14425;56.136;40.360;2023-02-01T15:34:23;23.92;;;10.18;;
26486;SDS011;14425;56.136;40.360;2023-02-01T15:37:13;18.92;;;9.40;;
26486;SDS011;14425;56.136;40.360;2023-02-01T15:42:52;22.27;;;11.05;;
26486;SDS011;14425;56.136;40.360;2023-02-01T15:45:20;25.92;;;10.85;;
26486;SDS011;14425;56.136;40.360;2023-02-01T15:47:50;18.42;;;9.77;;
26486;SDS011;14425;56.136;40.360;2023-02-01T15:50:18;22.70;;;11.07;;
26486;SDS011;14425;56.136;40.360;2023-02-01T15:52:46;19.23;;;9.95;;
26486;SDS011;14425;56.136;40.360;2023-02-01T15:58:08;23.17;;;10.43;;
26486;SDS011;14425;56.136;40.360;2023-02-01T16:00:47;22.67;;;11.00;;
26486;SDS011;14425;56.136;40.360;2023-02-01T16:03:26;20.52;;;10.93;;
26486;SDS011;14425;56.136;40.360;2023-02-01T16:06:01;23.60;;;11.27;;
26486;SDS011;14425;56.136;40.360;2023-02-01T16:08:30;25.98;;;12.00;;
26486;SDS011;14425;56.136;40.360;2023-02-01T16:11:10;21.80;;;11.10;;
26486;SDS011;14425;56.136;40.360;2023-02-01T16:13:45;22.38;;;11.38;;
26486;SDS011;14425;56.136;40.360;2023-02-01T16:16:11;22.00;;;10.68;;
26486;SDS011;14425;56.136;40.360;2023-02-01T16:18:39;24.02;;;10.93;;
26486;SDS011;14425;56.136;40.360;2023-02-01T16:21:05;19.85;;;11.60;;
26486;SDS011;14425;56.136;40.360;2023-02-01T16:23:33;22.13;;;11.65;;
26486;SDS011;14425;56.136;40.360;2023-02-01T16:26:00;21.88;;;11.18;;
26486;SDS011;14425;56.136;40.360;2023-02-01T16:28:25;22.95;;;10.90;;
26486;SDS011;14425;56.136;40.360;2023-02-01T16:30:51;23.70;;;12.50;;
26486;SDS011;14425;56.136;40.360;2023-02-01T16:33:18;23.73;;;11.25;;
26486;SDS011;14425;56.136;40.360;2023-02-01T16:35:46;28.17;;;12.05;;
26486;SDS011;14425;56.136;40.360;2023-02-01T16:38:13;19.67;;;10.60;;
26486;SDS011;14425;56.136;40.360;2023-02-01T16:40:43;24.33;;;11.40;;
26486;SDS011;14425;56.136;40.360;2023-02-01T16:43:13;26.25;;;13.25;;
26486;SDS011;14425;56.136;40.360;2023-02-01T16:45:53;24.90;;;12.63;;
26486;SDS011;14425;56.136;40.360;2023-02-01T16:48:29;22.67;;;11.52;;
26486;SDS011;14425;56.136;40.360;2023-02-01T16:51:02;17.10;;;8.82;;
26486;SDS011;14425;56.136;40.360;2023-02-01T16:53:35;21.10;;;11.20;;
26486;SDS011;14425;56.136;40.360;2023-02-01T16:56:01;23.73;;;12.10;;
26486;SDS011;14425;56.136;40.360;2023-02-01T16:58:28;22.90;;;12.18;;
26486;SDS011;14425;56.136;40.360;2023-02-01T17:00:54;19.48;;;10.68;;
26486;SDS011;14425;56.136;40.360;2023-02-01T17:03:20;22.50;;;11.52;;
26486;SDS011;14425;56.136;40.360;2023-02-01T17:05:53;28.08;;;11.57;;
26486;SDS011;14425;56.136;40.360;2023-02-01T17:08:55;22.75;;;11.23;;
26486;SDS011;14425;56.136;40.360;2023-02-01T17:11:21;25.02;;;11.65;;
26486;SDS011;14425;56.136;40.360;2023-02-01T17:13:46;27.10;;;12.45;;
26486;SDS011;14425;56.136;40.360;2023-02-01T17:19:17;21.75;;;11.25;;
26486;SDS011;14425;56.136;40.360;2023-02-01T17:21:44;25.77;;;10.27;;
26486;SDS011;14425;56.136;40.360;2023-02-01T17:24:16;20.50;;;11.25;;
26486;SDS011;14425;56.136;40.360;2023-02-01T17:26:44;22.15;;;13.02;;
26486;SDS011;14425;56.136;40.360;2023-02-01T17:29:10;27.63;;;12.68;;